createdAt,value
2023-02-07T00:01:08.838Z,150.07
2023-02-07T00:03:38.749Z,141.13
2023-02-07T00:06:10.630Z,148.02
2023-02-07T00:08:39.138Z,130.23
2023-02-07T00:11:07.200Z,133.85
2023-02-07T00:13:35.564Z,144.52
2023-02-07T00:16:04.472Z,145.27
2023-02-07T00:18:32.907Z,150.18
2023-02-07T00:21:00.290Z,143.32
2023-02-07T00:23:28.625Z,140.10
2023-02-07T00:25:56.058Z,146.85
2023-02-07T00:28:24.186Z,146.50
2023-02-07T00:30:51.878Z,138.63
2023-02-07T00:33:19.838Z,133.23
2023-02-07T00:35:47.222Z,128.25
2023-02-07T00:38:14.907Z,132.18
2023-02-07T00:40:42.329Z,139.32
2023-02-07T00:43:12.902Z,132.50
2023-02-07T00:45:43.923Z,142.45
2023-02-07T00:48:11.649Z,130.65
2023-02-07T00:50:39.044Z,128.52
2023-02-07T00:53:06.683Z,122.43
2023-02-07T00:55:34.139Z,130.93
2023-02-07T00:58:01.886Z,116.93
2023-02-07T01:00:29.354Z,132.77
2023-02-07T01:02:57.097Z,132.52
2023-02-07T01:05:24.582Z,126.72
2023-02-07T01:07:52.447Z,126.40
2023-02-07T01:10:19.987Z,139.65
2023-02-07T01:12:47.669Z,132.23
2023-02-07T01:15:15.024Z,117.07
2023-02-07T01:17:42.796Z,123.45
2023-02-07T01:20:10.502Z,142.95
2023-02-07T01:22:38.831Z,123.18
2023-02-07T01:25:06.994Z,128.40
2023-02-07T01:27:35.186Z,146.80
2023-02-07T01:30:02.831Z,130.52
2023-02-07T01:32:32.263Z,148.82
2023-02-07T01:34:59.684Z,148.95
2023-02-07T01:37:45.994Z,141.98
2023-02-07T01:40:31.983Z,129.00
2023-02-07T01:43:25.347Z,145.35
2023-02-07T01:49:15.606Z,128.80
2023-02-07T01:51:59.851Z,130.77
2023-02-07T01:54:28.851Z,142.00
2023-02-07T01:56:57.583Z,140.95
2023-02-07T01:59:25.960Z,142.65
2023-02-07T02:01:53.863Z,135.02
2023-02-07T02:04:21.613Z,128.27
2023-02-07T02:06:49.048Z,135.73
2023-02-07T02:09:16.722Z,142.52
2023-02-07T02:11:49.944Z,130.82
2023-02-07T02:14:20.522Z,154.60
2023-02-07T02:17:00.008Z,143.93
2023-02-07T02:19:38.373Z,191.63
2023-02-07T02:22:18.454Z,150.35
2023-02-07T02:24:46.100Z,153.63
2023-02-07T02:27:22.309Z,144.93
2023-02-07T02:29:49.959Z,136.50
2023-02-07T02:32:20.134Z,148.05
2023-02-07T02:34:50.596Z,147.45
2023-02-07T02:37:25.085Z,157.60
2023-02-07T02:40:08.733Z,153.02
2023-02-07T02:42:42.065Z,130.23
2023-02-07T02:45:20.684Z,134.18
2023-02-07T02:47:49.630Z,144.70
2023-02-07T02:50:35.686Z,140.23
2023-02-07T02:53:03.147Z,141.82
2023-02-07T02:55:49.375Z,150.70
2023-02-07T02:58:27.855Z,150.75
2023-02-07T03:01:14.165Z,148.13
2023-02-07T03:03:56.832Z,141.43
2023-02-07T03:06:30.367Z,164.15
2023-02-07T03:09:06.388Z,138.73
2023-02-07T03:11:38.728Z,159.90
2023-02-07T03:14:06.080Z,153.45
2023-02-07T03:16:50.077Z,156.05
2023-02-07T03:19:25.400Z,149.32
2023-02-07T03:21:58.387Z,151.60
2023-02-07T03:24:33.191Z,141.98
2023-02-07T03:27:02.862Z,137.32
2023-02-07T03:29:31.227Z,138.63
2023-02-07T03:32:00.222Z,146.95
2023-02-07T03:34:30.392Z,141.38
2023-02-07T03:37:04.620Z,153.05
2023-02-07T03:39:32.387Z,128.57
2023-02-07T03:42:02.502Z,141.45
2023-02-07T03:44:30.755Z,137.50
2023-02-07T03:46:58.437Z,136.60
2023-02-07T03:49:25.844Z,135.98
2023-02-07T03:51:53.553Z,134.93
2023-02-07T03:54:20.921Z,139.75
2023-02-07T03:56:48.630Z,138.73
2023-02-07T03:59:16.061Z,145.25
2023-02-07T04:01:43.699Z,135.27
2023-02-07T04:04:11.422Z,144.93
2023-02-07T04:06:39.213Z,152.45
2023-02-07T04:09:06.686Z,151.90
2023-02-07T04:11:34.320Z,129.27
2023-02-07T04:14:01.633Z,143.38
2023-02-07T04:16:29.391Z,150.18
2023-02-07T04:18:56.809Z,139.70
2023-02-07T04:21:24.460Z,141.75
2023-02-07T04:23:51.872Z,145.27
2023-02-07T04:26:19.532Z,138.30
2023-02-07T04:28:46.874Z,139.77
2023-02-07T04:31:14.527Z,136.73
2023-02-07T04:33:41.953Z,144.30
2023-02-07T04:36:09.723Z,134.30
2023-02-07T04:38:37.466Z,134.20
2023-02-07T04:41:05.495Z,143.85
2023-02-07T04:43:33.925Z,151.93
2023-02-07T04:46:01.965Z,139.35
2023-02-07T04:48:29.383Z,132.98
2023-02-07T04:50:57.563Z,137.13
2023-02-07T04:53:24.947Z,139.60
2023-02-07T04:55:53.427Z,138.68
2023-02-07T04:58:21.707Z,137.15
2023-02-07T05:00:49.640Z,142.98
2023-02-07T05:03:16.996Z,151.05
2023-02-07T05:05:45.188Z,142.38
2023-02-07T05:08:13.333Z,137.40
2023-02-07T05:10:41.310Z,137.82
2023-02-07T05:13:09.009Z,153.18
2023-02-07T05:15:37.216Z,145.60
2023-02-07T05:18:04.927Z,152.75
2023-02-07T05:20:32.585Z,139.43
2023-02-07T05:22:59.936Z,152.65
2023-02-07T05:25:27.664Z,151.60
2023-02-07T05:27:55.126Z,331.95
2023-02-07T05:30:22.993Z,146.85
2023-02-07T05:32:50.358Z,151.38
2023-02-07T05:35:18.139Z,157.85
2023-02-07T05:37:45.583Z,159.07
2023-02-07T05:40:13.244Z,156.52
2023-02-07T05:42:40.936Z,137.30
2023-02-07T05:45:08.836Z,140.38
2023-02-07T05:47:36.310Z,149.88
2023-02-07T05:50:04.106Z,147.55
2023-02-07T05:52:32.957Z,150.38
2023-02-07T05:55:01.791Z,147.10
2023-02-07T05:57:29.235Z,158.68
2023-02-07T05:59:57.233Z,141.88
2023-02-07T06:06:04.413Z,156.27
2023-02-07T06:08:32.199Z,152.77
2023-02-07T06:10:59.623Z,154.40
2023-02-07T06:13:27.396Z,144.32
2023-02-07T06:15:54.837Z,152.80
2023-02-07T06:18:22.876Z,155.07
2023-02-07T06:20:50.748Z,142.77
2023-02-07T06:23:18.390Z,147.88
2023-02-07T06:25:45.727Z,139.38
2023-02-07T06:31:45.669Z,141.18
2023-02-07T06:37:45.562Z,138.95
2023-02-07T06:40:13.195Z,138.30
2023-02-07T06:42:42.051Z,137.90
2023-02-07T06:45:09.803Z,152.60
2023-02-07T06:47:37.201Z,152.90
2023-02-07T06:53:26.590Z,141.32
2023-02-07T06:55:55.699Z,153.50
2023-02-07T06:58:23.158Z,163.80
2023-02-07T07:04:04.387Z,146.27
2023-02-07T07:06:32.195Z,140.18
2023-02-07T07:08:59.567Z,141.13
2023-02-07T07:14:49.358Z,202.27
2023-02-07T07:17:17.058Z,153.38
2023-02-07T07:19:44.404Z,133.57
2023-02-07T07:22:14.152Z,137.63
2023-02-07T07:24:41.532Z,145.20
2023-02-07T07:27:09.211Z,134.02
2023-02-07T07:29:36.545Z,147.32
2023-02-07T07:32:04.522Z,144.23
2023-02-07T07:34:56.259Z,146.13
2023-02-07T07:37:23.950Z,137.15
2023-02-07T07:40:04.449Z,131.48
2023-02-07T07:42:32.265Z,114.13
2023-02-07T07:45:05.789Z,111.25
2023-02-07T07:47:33.482Z,114.05
2023-02-07T07:50:00.867Z,120.70
2023-02-07T07:52:28.572Z,136.50
2023-02-07T07:54:55.990Z,116.63
2023-02-07T07:57:25.094Z,143.15
2023-02-07T07:59:52.481Z,126.20
2023-02-07T08:02:20.247Z,139.02
2023-02-07T08:04:47.882Z,120.57
2023-02-07T08:07:15.703Z,120.20
2023-02-07T08:09:43.089Z,110.57
2023-02-07T08:12:10.988Z,110.55
2023-02-07T08:14:39.008Z,108.82
2023-02-07T08:17:07.201Z,101.95
2023-02-07T08:19:35.137Z,104.75
2023-02-07T08:22:03.333Z,111.70
2023-02-07T08:24:31.278Z,98.65
2023-02-07T08:26:59.558Z,103.85
2023-02-07T08:29:27.518Z,99.70
2023-02-07T08:31:55.755Z,99.78
2023-02-07T08:34:23.660Z,83.70
2023-02-07T08:36:52.722Z,96.47
2023-02-07T08:39:20.755Z,94.93
2023-02-07T08:41:49.005Z,109.32
2023-02-07T08:44:16.972Z,111.80
2023-02-07T08:46:45.224Z,105.13
2023-02-07T08:49:14.677Z,101.55
2023-02-07T08:51:42.926Z,85.72
2023-02-07T08:56:39.390Z,83.38
2023-02-07T08:59:07.321Z,70.90
2023-02-07T09:01:35.937Z,62.45
2023-02-07T09:04:04.033Z,59.17
2023-02-07T09:06:32.390Z,60.40
2023-02-07T09:09:00.363Z,43.58
2023-02-07T09:11:28.459Z,46.00
2023-02-07T09:13:55.881Z,44.15
2023-02-07T09:16:23.657Z,44.63
2023-02-07T09:18:51.760Z,37.65
2023-02-07T09:21:19.472Z,30.65
2023-02-07T09:23:46.845Z,32.85
2023-02-07T09:26:19.575Z,28.52
2023-02-07T09:28:47.029Z,34.13
2023-02-07T09:31:15.969Z,40.58
2023-02-07T09:33:43.474Z,39.50
2023-02-07T09:36:21.522Z,33.97
2023-02-07T09:38:49.244Z,36.92
2023-02-07T09:41:35.500Z,38.92
2023-02-07T09:44:11.909Z,37.83
2023-02-07T09:46:52.861Z,35.92
2023-02-07T09:49:32.287Z,32.00
2023-02-07T09:52:00.779Z,34.83
2023-02-07T09:54:54.251Z,32.55
2023-02-07T09:57:25.285Z,34.38
2023-02-07T09:59:59.872Z,30.33
2023-02-07T10:02:31.807Z,28.30
2023-02-07T10:05:02.549Z,26.58
2023-02-07T10:07:30.824Z,28.55
2023-02-07T10:09:58.542Z,22.55
2023-02-07T10:12:41.189Z,21.77
2023-02-07T10:15:08.824Z,26.25
2023-02-07T10:17:42.425Z,21.75
2023-02-07T10:20:15.700Z,25.15
2023-02-07T10:22:46.241Z,25.77
2023-02-07T10:25:22.749Z,28.83
2023-02-07T10:28:11.799Z,22.35
2023-02-07T10:30:40.696Z,21.65
2023-02-07T10:33:15.743Z,25.55
2023-02-07T10:35:44.100Z,23.30
2023-02-07T10:38:18.505Z,23.30
2023-02-07T10:40:52.508Z,22.55
2023-02-07T10:43:33.947Z,22.40
2023-02-07T10:46:08.321Z,20.10
2023-02-07T10:48:36.939Z,20.88
2023-02-07T10:51:11.804Z,21.20
2023-02-07T10:53:54.603Z,20.08
2023-02-07T10:56:30.885Z,19.88
2023-02-07T10:58:59.451Z,21.05
2023-02-07T11:01:28.125Z,27.92
2023-02-07T11:03:58.706Z,21.27
2023-02-07T11:06:30.131Z,19.80
2023-02-07T11:09:30.282Z,19.65
2023-02-07T11:11:57.981Z,19.42
2023-02-07T11:14:26.790Z,18.63
2023-02-07T11:16:55.509Z,21.50
2023-02-07T11:19:25.202Z,23.40
2023-02-07T11:21:55.552Z,20.80
2023-02-07T11:24:30.484Z,20.83
2023-02-07T11:27:02.459Z,24.52
2023-02-07T11:31:58.450Z,20.45
2023-02-07T11:34:44.475Z,21.15
2023-02-07T11:37:17.725Z,18.33
2023-02-07T11:39:45.578Z,19.25
2023-02-07T11:42:14.574Z,23.50
2023-02-07T11:44:43.297Z,23.63
2023-02-07T11:47:14.075Z,21.58
2023-02-07T11:49:43.108Z,21.13
2023-02-07T11:52:10.721Z,21.73
2023-02-07T11:54:39.917Z,20.55
2023-02-07T11:57:10.830Z,21.88
2023-02-07T11:59:45.679Z,21.30
2023-02-07T12:02:18.558Z,23.42
2023-02-07T12:04:46.647Z,24.85
2023-02-07T12:07:17.072Z,16.48
2023-02-07T12:09:50.715Z,17.70
2023-02-07T12:12:21.105Z,21.33
2023-02-07T12:14:51.942Z,21.38
2023-02-07T12:17:29.811Z,23.50
2023-02-07T12:20:03.022Z,68.78
2023-02-07T12:22:41.859Z,27.42
2023-02-07T12:25:22.922Z,20.63
2023-02-07T12:27:52.426Z,21.33
2023-02-07T12:30:28.496Z,20.33
2023-02-07T12:33:16.139Z,24.48
2023-02-07T12:35:56.932Z,19.50
2023-02-07T12:38:42.336Z,20.42
2023-02-07T12:41:12.909Z,19.38
2023-02-07T12:43:44.667Z,23.90
2023-02-07T12:46:21.750Z,23.95
2023-02-07T12:48:55.321Z,21.90
2023-02-07T12:51:29.547Z,23.75
2023-02-07T12:54:05.615Z,24.33
2023-02-07T12:56:52.491Z,21.40
2023-02-07T12:59:30.981Z,25.73
2023-02-07T13:02:17.145Z,21.33
2023-02-07T13:04:58.259Z,23.90
2023-02-07T13:07:35.649Z,22.05
2023-02-07T13:10:03.083Z,24.38
2023-02-07T13:12:37.530Z,23.95
2023-02-07T13:15:23.410Z,22.85
2023-02-07T13:17:51.160Z,22.60
2023-02-07T13:20:31.865Z,24.52
2023-02-07T13:23:01.524Z,24.20
2023-02-07T13:25:54.984Z,18.90
2023-02-07T13:28:35.450Z,24.50
2023-02-07T13:31:03.746Z,20.27
2023-02-07T13:33:31.388Z,19.17
2023-02-07T13:36:02.142Z,24.17
2023-02-07T13:38:38.543Z,26.38
2023-02-07T13:41:09.773Z,22.38
2023-02-07T13:43:46.209Z,22.30
2023-02-07T13:46:42.602Z,21.45
2023-02-07T13:49:19.836Z,26.63
2023-02-07T13:51:47.187Z,20.40
2023-02-07T13:54:17.746Z,16.40
2023-02-07T13:56:55.741Z,19.10
2023-02-07T13:59:33.155Z,20.02
2023-02-07T14:05:38.391Z,22.70
2023-02-07T14:08:18.112Z,18.85
2023-02-07T14:10:45.532Z,21.02
2023-02-07T14:13:20.926Z,21.10
2023-02-07T14:15:48.340Z,22.85
2023-02-07T14:18:31.049Z,26.15
2023-02-07T14:21:03.156Z,18.85
2023-02-07T14:25:58.102Z,22.35
2023-02-07T14:28:34.856Z,21.58
2023-02-07T14:31:11.132Z,25.45
2023-02-07T14:33:40.993Z,20.70
2023-02-07T14:36:14.701Z,23.58
2023-02-07T14:39:03.153Z,20.83
2023-02-07T14:41:32.478Z,21.73
2023-02-07T14:44:09.263Z,18.63
2023-02-07T14:46:48.782Z,19.77
2023-02-07T14:49:35.044Z,19.10
2023-02-07T14:52:06.917Z,20.08
2023-02-07T14:55:14.152Z,22.17
2023-02-07T14:57:56.773Z,20.55
2023-02-07T15:00:30.209Z,21.67
2023-02-07T15:02:59.134Z,25.85
2023-02-07T15:05:28.599Z,24.08
2023-02-07T15:08:01.852Z,24.83
2023-02-07T15:10:29.499Z,22.90
2023-02-07T15:12:57.031Z,25.48
2023-02-07T15:15:27.360Z,23.02
2023-02-07T15:17:56.124Z,22.50
2023-02-07T15:20:30.745Z,23.98
2023-02-07T15:22:59.422Z,32.10
2023-02-07T15:25:41.287Z,25.13
2023-02-07T15:28:28.390Z,23.60
2023-02-07T15:34:31.468Z,21.88
2023-02-07T15:37:00.748Z,33.80
2023-02-07T15:39:29.518Z,26.38
2023-02-07T15:41:57.684Z,24.25
2023-02-07T15:44:28.960Z,22.60
2023-02-07T15:46:57.894Z,25.90
2023-02-07T15:49:28.082Z,23.98
2023-02-07T15:51:58.115Z,22.30
2023-02-07T15:54:26.738Z,20.73
2023-02-07T15:57:00.256Z,26.33
2023-02-07T15:59:29.155Z,22.75
2023-02-07T16:01:58.880Z,22.08
2023-02-07T16:04:29.092Z,28.02
2023-02-07T16:07:29.295Z,23.52
2023-02-07T16:10:13.645Z,35.70
2023-02-07T16:12:44.229Z,25.83
2023-02-07T16:15:31.550Z,22.45
2023-02-07T16:17:59.814Z,21.15
2023-02-07T16:20:28.609Z,21.33
2023-02-07T16:22:57.692Z,29.92
2023-02-07T16:25:29.454Z,26.77
2023-02-07T16:27:57.326Z,25.63
2023-02-07T16:30:27.812Z,27.48
2023-02-07T16:32:55.507Z,22.80
2023-02-07T16:35:24.628Z,24.50
2023-02-07T16:37:52.863Z,26.25
2023-02-07T16:40:21.232Z,25.25
2023-02-07T16:42:49.460Z,26.33
2023-02-07T16:45:16.827Z,21.85
2023-02-07T16:47:44.600Z,31.77
2023-02-07T16:50:19.603Z,26.30
2023-02-07T16:52:47.948Z,27.48
2023-02-07T16:55:16.401Z,23.27
2023-02-07T16:57:45.108Z,26.38
2023-02-07T17:00:23.018Z,24.80
2023-02-07T17:02:51.309Z,30.88
2023-02-07T17:05:20.215Z,26.83
2023-02-07T17:07:48.197Z,24.92
2023-02-07T17:10:19.191Z,27.38
2023-02-07T17:12:46.847Z,26.63
2023-02-07T17:15:14.275Z,29.85
2023-02-07T17:17:42.200Z,27.35
2023-02-07T17:20:29.384Z,27.98
2023-02-07T17:22:57.081Z,27.15
2023-02-07T17:25:25.731Z,27.23
2023-02-07T17:27:53.732Z,25.88
2023-02-07T17:30:25.901Z,33.38
2023-02-07T17:32:54.436Z,27.67
2023-02-07T17:35:23.067Z,27.92
2023-02-07T17:37:50.882Z,24.27
2023-02-07T17:40:21.411Z,27.10
2023-02-07T17:42:49.373Z,25.65
2023-02-07T17:45:16.870Z,25.23
2023-02-07T17:47:44.638Z,27.73
2023-02-07T17:50:23.099Z,28.52
2023-02-07T17:52:50.964Z,27.75
2023-02-07T17:55:18.547Z,27.27
2023-02-07T17:57:46.517Z,27.58
2023-02-07T18:00:17.013Z,25.02
2023-02-07T18:02:47.320Z,26.33
2023-02-07T18:05:15.751Z,27.50
2023-02-07T18:07:47.270Z,27.30
2023-02-07T18:10:19.634Z,29.50
2023-02-07T18:12:47.392Z,30.58
2023-02-07T18:15:15.172Z,28.33
2023-02-07T18:17:43.124Z,32.28
2023-02-07T18:20:11.865Z,32.83
2023-02-07T18:22:39.582Z,24.95
2023-02-07T18:25:07.011Z,26.55
2023-02-07T18:27:35.294Z,26.13
2023-02-07T18:30:03.110Z,24.33
2023-02-07T18:32:30.829Z,31.75
2023-02-07T18:34:58.401Z,26.35
2023-02-07T18:37:26.344Z,25.42
2023-02-07T18:39:53.741Z,23.92
2023-02-07T18:42:21.374Z,27.98
2023-02-07T18:44:48.962Z,32.28
2023-02-07T18:47:18.656Z,28.63
2023-02-07T18:49:46.994Z,25.42
2023-02-07T18:52:15.392Z,24.38
2023-02-07T18:54:42.900Z,28.25
2023-02-07T18:57:11.888Z,26.60
2023-02-07T18:59:40.435Z,29.42
2023-02-07T19:02:10.454Z,24.85
2023-02-07T19:04:37.849Z,26.02
2023-02-07T19:07:06.602Z,27.10
2023-02-07T19:09:34.054Z,23.40
2023-02-07T19:12:02.025Z,24.52
2023-02-07T19:14:30.240Z,23.58
2023-02-07T19:16:58.499Z,24.60
2023-02-07T19:19:27.713Z,37.88
2023-02-07T19:21:56.309Z,27.08
2023-02-07T19:24:24.196Z,27.63
2023-02-07T19:26:53.768Z,29.48
2023-02-07T19:29:22.234Z,26.88
2023-02-07T19:31:50.160Z,31.27
2023-02-07T19:34:17.558Z,22.58
2023-02-07T19:36:45.519Z,27.95
2023-02-07T19:39:12.988Z,29.63
2023-02-07T19:41:40.667Z,26.88
2023-02-07T19:44:08.077Z,20.00
2023-02-07T19:46:36.201Z,31.27
2023-02-07T19:49:03.915Z,25.85
2023-02-07T19:51:32.066Z,21.73
2023-02-07T19:53:59.788Z,23.77
2023-02-07T19:56:29.088Z,27.05
2023-02-07T19:58:56.608Z,24.92
2023-02-07T20:01:25.073Z,29.35
2023-02-07T20:03:55.903Z,25.10
2023-02-07T20:06:28.549Z,26.05
2023-02-07T20:11:23.429Z,27.17
2023-02-07T20:13:51.954Z,38.63
2023-02-07T20:16:21.025Z,25.73
2023-02-07T20:18:49.098Z,26.73
2023-02-07T20:21:17.962Z,24.45
2023-02-07T20:23:45.509Z,29.80
2023-02-07T20:26:17.862Z,36.58
2023-02-07T20:28:45.363Z,27.48
2023-02-07T20:31:14.412Z,29.65
2023-02-07T20:33:45.115Z,25.15
2023-02-07T20:36:13.982Z,24.88
2023-02-07T20:38:42.877Z,28.25
2023-02-07T20:41:13.813Z,22.63
2023-02-07T20:43:45.271Z,28.67
2023-02-07T20:46:14.414Z,28.52
2023-02-07T20:48:42.126Z,23.42
2023-02-07T20:51:10.318Z,26.75
2023-02-07T20:53:38.675Z,22.75
2023-02-07T20:56:10.800Z,26.80
2023-02-07T20:58:38.504Z,26.17
2023-02-07T21:01:14.211Z,24.88
2023-02-07T21:03:41.936Z,23.33
2023-02-07T21:06:09.991Z,22.83
2023-02-07T21:08:37.895Z,21.50
2023-02-07T21:11:06.604Z,22.88
2023-02-07T21:13:34.369Z,24.58
2023-02-07T21:16:03.723Z,20.17
2023-02-07T21:18:32.137Z,19.27
2023-02-07T21:21:00.309Z,26.45
2023-02-07T21:23:27.680Z,25.42
2023-02-07T21:26:01.910Z,23.45
2023-02-07T21:28:29.349Z,22.42
2023-02-07T21:31:01.147Z,22.27
2023-02-07T21:33:28.620Z,19.70
2023-02-07T21:36:06.420Z,16.35
2023-02-07T21:38:34.246Z,18.27
2023-02-07T21:41:02.039Z,21.77
2023-02-07T21:43:29.498Z,21.92
2023-02-07T21:46:07.285Z,19.50
2023-02-07T21:48:35.753Z,20.20
2023-02-07T21:51:04.840Z,20.40
2023-02-07T21:53:32.276Z,19.83
2023-02-07T21:56:03.523Z,21.83
2023-02-07T21:58:30.941Z,21.73
2023-02-07T22:01:09.169Z,61.53
2023-02-07T22:07:11.864Z,30.05
2023-02-07T22:09:39.572Z,26.10
2023-02-07T22:12:07.052Z,29.40
2023-02-07T22:14:34.858Z,22.17
2023-02-07T22:17:02.237Z,27.60
2023-02-07T22:19:29.909Z,22.90
2023-02-07T22:21:57.372Z,24.15
2023-02-07T22:24:25.021Z,26.27
2023-02-07T22:26:52.380Z,21.90
2023-02-07T22:29:20.010Z,18.77
2023-02-07T22:31:47.675Z,23.08
2023-02-07T22:34:15.469Z,17.73
2023-02-07T22:36:43.722Z,22.90
2023-02-07T22:39:12.152Z,30.77
2023-02-07T22:41:43.562Z,24.88
2023-02-07T22:44:11.500Z,23.85
2023-02-07T22:46:38.991Z,23.30
2023-02-07T22:49:06.753Z,24.25
2023-02-07T22:51:35.594Z,29.58
2023-02-07T22:54:05.164Z,21.52
2023-02-07T22:59:54.730Z,18.08
2023-02-07T23:02:22.414Z,18.63
2023-02-07T23:04:49.866Z,22.60
2023-02-07T23:07:17.601Z,16.88
2023-02-07T23:09:45.216Z,46.65
2023-02-07T23:12:12.990Z,22.23
2023-02-07T23:14:40.511Z,16.70
2023-02-07T23:17:08.259Z,23.90
2023-02-07T23:19:35.646Z,16.73
2023-02-07T23:22:03.380Z,22.30
2023-02-07T23:24:30.768Z,22.17
2023-02-07T23:26:58.429Z,21.92
2023-02-07T23:29:25.890Z,17.95
2023-02-07T23:31:53.562Z,21.50
2023-02-07T23:34:21.020Z,17.75
2023-02-07T23:36:48.728Z,18.75
2023-02-07T23:39:16.091Z,18.23
2023-02-07T23:41:43.725Z,20.88
2023-02-07T23:44:11.092Z,21.58
2023-02-07T23:46:38.818Z,19.80
2023-02-07T23:49:06.446Z,22.15
2023-02-07T23:51:34.231Z,22.38
2023-02-07T23:54:01.874Z,24.30
2023-02-07T23:56:29.550Z,21.55
2023-02-07T23:58:57.002Z,21.90
